sensor_id;sensor_type;location;lat;lon;timestamp;P1;P2;P0
24012;PMS7003;12220;50.194;18.948;2023-01-08T00:00:11;91;80;44
24012;PMS7003;12220;50.194;18.948;2023-01-08T00:02:18;86;76;39
24012;PMS7003;12220;50.194;18.948;2023-01-08T00:04:22;75;60;35
24012;PMS7003;12220;50.194;18.948;2023-01-08T00:06:24;76;61;34
24012;PMS7003;12220;50.194;18.948;2023-01-08T00:08:25;73;59;35
24012;PMS7003;12220;50.194;18.948;2023-01-08T00:10:27;66;50;34
24012;PMS7003;12220;50.194;18.948;2023-01-08T00:12:38;62;51;33
24012;PMS7003;12220;50.194;18.948;2023-01-08T00:14:39;69;53;33
24012;PMS7003;12220;50.194;18.948;2023-01-08T00:16:40;69;53;33
24012;PMS7003;12220;50.194;18.948;2023-01-08T00:18:42;65;50;32
24012;PMS7003;12220;50.194;18.948;2023-01-08T00:20:53;62;47;30
24012;PMS7003;12220;50.194;18.948;2023-01-08T00:22:54;64;49;30
24012;PMS7003;12220;50.194;18.948;2023-01-08T00:24:56;65;50;31
24012;PMS7003;12220;50.194;18.948;2023-01-08T00:26:57;63;49;32
24012;PMS7003;12220;50.194;18.948;2023-01-08T00:29:08;71;56;33
24012;PMS7003;12220;50.194;18.948;2023-01-08T00:31:10;76;57;36
24012;PMS7003;12220;50.194;18.948;2023-01-08T00:33:13;80;67;41
24012;PMS7003;12220;50.194;18.948;2023-01-08T00:35:15;80;69;39
24012;PMS7003;12220;50.194;18.948;2023-01-08T00:37:24;66;50;33
24012;PMS7003;12220;50.194;18.948;2023-01-08T00:39:26;65;50;34
24012;PMS7003;12220;50.194;18.948;2023-01-08T00:41:27;74;54;34
24012;PMS7003;12220;50.194;18.948;2023-01-08T00:43:28;68;51;33
24012;PMS7003;12220;50.194;18.948;2023-01-08T00:45:39;68;52;33
24012;PMS7003;12220;50.194;18.948;2023-01-08T00:47:42;65;52;34
24012;PMS7003;12220;50.194;18.948;2023-01-08T00:49:43;63;48;32
24012;PMS7003;12220;50.194;18.948;2023-01-08T00:51:45;82;70;37
24012;PMS7003;12220;50.194;18.948;2023-01-08T00:53:55;102;77;39
24012;PMS7003;12220;50.194;18.948;2023-01-08T00:56:02;78;63;35
24012;PMS7003;12220;50.194;18.948;2023-01-08T00:58:06;77;65;35
24012;PMS7003;12220;50.194;18.948;2023-01-08T01:00:09;74;60;35
24012;PMS7003;12220;50.194;18.948;2023-01-08T01:02:13;74;53;33
24012;PMS7003;12220;50.194;18.948;2023-01-08T01:04:15;66;52;30
24012;PMS7003;12220;50.194;18.948;2023-01-08T01:06:17;71;51;33
24012;PMS7003;12220;50.194;18.948;2023-01-08T01:08:19;62;46;28
24012;PMS7003;12220;50.194;18.948;2023-01-08T01:10:26;67;54;33
24012;PMS7003;12220;50.194;18.948;2023-01-08T01:12:28;61;45;28
24012;PMS7003;12220;50.194;18.948;2023-01-08T01:14:29;59;47;30
24012;PMS7003;12220;50.194;18.948;2023-01-08T01:16:31;60;44;28
24012;PMS7003;12220;50.194;18.948;2023-01-08T01:18:41;52;44;27
24012;PMS7003;12220;50.194;18.948;2023-01-08T01:20:43;51;43;28
24012;PMS7003;12220;50.194;18.948;2023-01-08T01:22:45;55;43;27
24012;PMS7003;12220;50.194;18.948;2023-01-08T01:24:46;57;41;28
24012;PMS7003;12220;50.194;18.948;2023-01-08T01:26:57;52;42;26
24012;PMS7003;12220;50.194;18.948;2023-01-08T01:28:58;51;40;25
24012;PMS7003;12220;50.194;18.948;2023-01-08T01:31:01;50;41;28
24012;PMS7003;12220;50.194;18.948;2023-01-08T01:33:03;52;40;28
24012;PMS7003;12220;50.194;18.948;2023-01-08T01:35:12;55;40;28
24012;PMS7003;12220;50.194;18.948;2023-01-08T01:37:14;56;44;27
24012;PMS7003;12220;50.194;18.948;2023-01-08T01:39:16;53;40;27
24012;PMS7003;12220;50.194;18.948;2023-01-08T01:43:39;58;43;27
24012;PMS7003;12220;50.194;18.948;2023-01-08T01:45:48;56;46;29
24012;PMS7003;12220;50.194;18.948;2023-01-08T01:47:57;58;46;28
24012;PMS7003;12220;50.194;18.948;2023-01-08T01:52:17;56;44;29
24012;PMS7003;12220;50.194;18.948;2023-01-08T01:54:25;55;42;26
24012;PMS7003;12220;50.194;18.948;2023-01-08T01:56:29;53;42;26
24012;PMS7003;12220;50.194;18.948;2023-01-08T01:58:32;54;44;28
24012;PMS7003;12220;50.194;18.948;2023-01-08T02:00:33;53;42;27
24012;PMS7003;12220;50.194;18.948;2023-01-08T02:02:35;51;41;26
24012;PMS7003;12220;50.194;18.948;2023-01-08T02:04:44;49;39;24
24012;PMS7003;12220;50.194;18.948;2023-01-08T02:06:47;52;40;25
24012;PMS7003;12220;50.194;18.948;2023-01-08T02:11:15;51;40;25
24012;PMS7003;12220;50.194;18.948;2023-01-08T02:13:28;53;43;26
24012;PMS7003;12220;50.194;18.948;2023-01-08T02:15:40;44;37;24
24012;PMS7003;12220;50.194;18.948;2023-01-08T02:17:52;54;41;27
24012;PMS7003;12220;50.194;18.948;2023-01-08T02:20:19;52;40;26
24012;PMS7003;12220;50.194;18.948;2023-01-08T02:27:13;46;34;22
24012;PMS7003;12220;50.194;18.948;2023-01-08T02:29:19;44;36;22
24012;PMS7003;12220;50.194;18.948;2023-01-08T02:31:24;40;34;23
24012;PMS7003;12220;50.194;18.948;2023-01-08T02:33:28;44;34;21
24012;PMS7003;12220;50.194;18.948;2023-01-08T02:35:36;38;34;23
24012;PMS7003;12220;50.194;18.948;2023-01-08T02:37:50;44;31;20
24012;PMS7003;12220;50.194;18.948;2023-01-08T02:40:00;42;30;20
24012;PMS7003;12220;50.194;18.948;2023-01-08T02:42:10;41;34;23
24012;PMS7003;12220;50.194;18.948;2023-01-08T02:44:33;39;33;21
24012;PMS7003;12220;50.194;18.948;2023-01-08T02:46:38;47;36;22
24012;PMS7003;12220;50.194;18.948;2023-01-08T02:48:43;42;31;22
24012;PMS7003;12220;50.194;18.948;2023-01-08T02:53:22;35;32;20
24012;PMS7003;12220;50.194;18.948;2023-01-08T02:55:37;36;28;19
24012;PMS7003;12220;50.194;18.948;2023-01-08T02:57:42;48;36;22
24012;PMS7003;12220;50.194;18.948;2023-01-08T02:59:45;37;30;19
24012;PMS7003;12220;50.194;18.948;2023-01-08T03:01:50;46;38;23
24012;PMS7003;12220;50.194;18.948;2023-01-08T03:03:53;40;35;22
24012;PMS7003;12220;50.194;18.948;2023-01-08T03:06:03;39;34;23
24012;PMS7003;12220;50.194;18.948;2023-01-08T03:08:07;39;34;23
24012;PMS7003;12220;50.194;18.948;2023-01-08T03:10:10;44;34;24
24012;PMS7003;12220;50.194;18.948;2023-01-08T03:16:45;42;33;22
24012;PMS7003;12220;50.194;18.948;2023-01-08T03:18:51;42;33;22
24012;PMS7003;12220;50.194;18.948;2023-01-08T03:20:57;42;34;22
24012;PMS7003;12220;50.194;18.948;2023-01-08T03:22:59;46;34;23
24012;PMS7003;12220;50.194;18.948;2023-01-08T03:25:04;40;34;23
24012;PMS7003;12220;50.194;18.948;2023-01-08T03:27:08;32;31;23
24012;PMS7003;12220;50.194;18.948;2023-01-08T03:29:13;52;38;23
24012;PMS7003;12220;50.194;18.948;2023-01-08T03:31:17;46;36;23
24012;PMS7003;12220;50.194;18.948;2023-01-08T03:33:20;34;30;22
24012;PMS7003;12220;50.194;18.948;2023-01-08T03:35:24;39;34;23
24012;PMS7003;12220;50.194;18.948;2023-01-08T03:37:28;48;39;21
24012;PMS7003;12220;50.194;18.948;2023-01-08T03:39:37;44;36;23
24012;PMS7003;12220;50.194;18.948;2023-01-08T03:41:50;45;36;21
24012;PMS7003;12220;50.194;18.948;2023-01-08T03:43:56;42;33;22
24012;PMS7003;12220;50.194;18.948;2023-01-08T03:45:59;46;37;23
24012;PMS7003;12220;50.194;18.948;2023-01-08T03:48:03;32;30;22
24012;PMS7003;12220;50.194;18.948;2023-01-08T03:50:07;35;30;19
24012;PMS7003;12220;50.194;18.948;2023-01-08T03:54:29;33;30;20
24012;PMS7003;12220;50.194;18.948;2023-01-08T03:56:32;43;35;24
24012;PMS7003;12220;50.194;18.948;2023-01-08T03:58:34;39;32;20
24012;PMS7003;12220;50.194;18.948;2023-01-08T04:00:35;39;34;22
24012;PMS7003;12220;50.194;18.948;2023-01-08T04:02:37;51;36;24
24012;PMS7003;12220;50.194;18.948;2023-01-08T04:04:41;43;37;24
24012;PMS7003;12220;50.194;18.948;2023-01-08T04:06:45;44;34;23
24012;PMS7003;12220;50.194;18.948;2023-01-08T04:08:47;50;36;22
24012;PMS7003;12220;50.194;18.948;2023-01-08T04:10:48;44;34;23
24012;PMS7003;12220;50.194;18.948;2023-01-08T04:12:53;36;32;21
24012;PMS7003;12220;50.194;18.948;2023-01-08T04:15:01;32;26;19
24012;PMS7003;12220;50.194;18.948;2023-01-08T04:17:02;31;28;20
24012;PMS7003;12220;50.194;18.948;2023-01-08T04:19:04;51;37;20
24012;PMS7003;12220;50.194;18.948;2023-01-08T04:21:05;49;35;23
24012;PMS7003;12220;50.194;18.948;2023-01-08T04:23:16;35;32;21
24012;PMS7003;12220;50.194;18.948;2023-01-08T04:25:17;40;34;21
24012;PMS7003;12220;50.194;18.948;2023-01-08T04:27:19;40;34;21
24012;PMS7003;12220;50.194;18.948;2023-01-08T04:29:20;37;32;22
24012;PMS7003;12220;50.194;18.948;2023-01-08T04:31:31;42;35;21
24012;PMS7003;12220;50.194;18.948;2023-01-08T04:33:33;46;36;21
24012;PMS7003;12220;50.194;18.948;2023-01-08T04:35:35;33;29;19
24012;PMS7003;12220;50.194;18.948;2023-01-08T04:37:36;45;35;20
24012;PMS7003;12220;50.194;18.948;2023-01-08T04:39:46;39;33;22
24012;PMS7003;12220;50.194;18.948;2023-01-08T04:41:48;36;31;21
24012;PMS7003;12220;50.194;18.948;2023-01-08T04:43:49;38;33;23
24012;PMS7003;12220;50.194;18.948;2023-01-08T04:45:51;39;32;23
24012;PMS7003;12220;50.194;18.948;2023-01-08T04:48:01;27;26;19
24012;PMS7003;12220;50.194;18.948;2023-01-08T04:50:03;36;32;21
24012;PMS7003;12220;50.194;18.948;2023-01-08T04:52:05;55;38;25
24012;PMS7003;12220;50.194;18.948;2023-01-08T04:54:06;49;40;24
24012;PMS7003;12220;50.194;18.948;2023-01-08T04:56:16;42;34;22
24012;PMS7003;12220;50.194;18.948;2023-01-08T04:58:18;47;36;24
24012;PMS7003;12220;50.194;18.948;2023-01-08T05:00:19;46;39;23
24012;PMS7003;12220;50.194;18.948;2023-01-08T05:02:21;45;33;21
24012;PMS7003;12220;50.194;18.948;2023-01-08T05:04:32;45;37;21
24012;PMS7003;12220;50.194;18.948;2023-01-08T05:06:33;43;33;23
24012;PMS7003;12220;50.194;18.948;2023-01-08T05:08:35;37;33;22
24012;PMS7003;12220;50.194;18.948;2023-01-08T05:10:36;45;35;21
24012;PMS7003;12220;50.194;18.948;2023-01-08T05:12:47;43;35;23
24012;PMS7003;12220;50.194;18.948;2023-01-08T05:14:48;49;37;21
24012;PMS7003;12220;50.194;18.948;2023-01-08T05:16:50;35;31;21
24012;PMS7003;12220;50.194;18.948;2023-01-08T05:18:51;45;36;20
24012;PMS7003;12220;50.194;18.948;2023-01-08T05:21:03;45;36;23
24012;PMS7003;12220;50.194;18.948;2023-01-08T05:23:05;38;33;20
24012;PMS7003;12220;50.194;18.948;2023-01-08T05:25:06;52;36;22
24012;PMS7003;12220;50.194;18.948;2023-01-08T05:27:08;45;36;20
24012;PMS7003;12220;50.194;18.948;2023-01-08T05:29:17;47;36;24
24012;PMS7003;12220;50.194;18.948;2023-01-08T05:31:19;43;32;21
24012;PMS7003;12220;50.194;18.948;2023-01-08T05:33:21;46;36;25
24012;PMS7003;12220;50.194;18.948;2023-01-08T05:35:23;34;31;21
24012;PMS7003;12220;50.194;18.948;2023-01-08T05:37:33;47;34;20
24012;PMS7003;12220;50.194;18.948;2023-01-08T05:39:35;41;34;22
24012;PMS7003;12220;50.194;18.948;2023-01-08T05:41:37;36;30;22
24012;PMS7003;12220;50.194;18.948;2023-01-08T05:43:39;36;32;21
24012;PMS7003;12220;50.194;18.948;2023-01-08T05:45:47;48;37;23
24012;PMS7003;12220;50.194;18.948;2023-01-08T05:47:49;45;34;23
24012;PMS7003;12220;50.194;18.948;2023-01-08T05:49:50;47;38;24
24012;PMS7003;12220;50.194;18.948;2023-01-08T05:51:52;45;37;22
24012;PMS7003;12220;50.194;18.948;2023-01-08T05:54:03;50;38;24
24012;PMS7003;12220;50.194;18.948;2023-01-08T05:56:05;47;39;25
24012;PMS7003;12220;50.194;18.948;2023-01-08T05:58:08;49;39;24
24012;PMS7003;12220;50.194;18.948;2023-01-08T06:00:12;49;39;24
24012;PMS7003;12220;50.194;18.948;2023-01-08T06:02:21;44;36;24
24012;PMS7003;12220;50.194;18.948;2023-01-08T06:04:22;44;37;24
24012;PMS7003;12220;50.194;18.948;2023-01-08T06:06:24;48;39;24
24012;PMS7003;12220;50.194;18.948;2023-01-08T06:08:26;45;34;22
24012;PMS7003;12220;50.194;18.948;2023-01-08T06:10:37;55;45;27
24012;PMS7003;12220;50.194;18.948;2023-01-08T06:12:38;44;38;25
24012;PMS7003;12220;50.194;18.948;2023-01-08T06:14:40;50;40;26
24012;PMS7003;12220;50.194;18.948;2023-01-08T06:16:42;51;42;27
24012;PMS7003;12220;50.194;18.948;2023-01-08T06:18:48;59;45;27
24012;PMS7003;12220;50.194;18.948;2023-01-08T06:20:50;61;47;27
24012;PMS7003;12220;50.194;18.948;2023-01-08T06:22:52;57;42;26
24012;PMS7003;12220;50.194;18.948;2023-01-08T06:24:54;54;42;24
24012;PMS7003;12220;50.194;18.948;2023-01-08T06:27:03;62;47;29
24012;PMS7003;12220;50.194;18.948;2023-01-08T06:29:05;57;45;29
24012;PMS7003;12220;50.194;18.948;2023-01-08T06:31:07;58;45;28
24012;PMS7003;12220;50.194;18.948;2023-01-08T06:33:08;61;47;29
24012;PMS7003;12220;50.194;18.948;2023-01-08T06:35:19;62;48;31
24012;PMS7003;12220;50.194;18.948;2023-01-08T06:37:20;61;46;28
24012;PMS7003;12220;50.194;18.948;2023-01-08T06:39:22;62;47;29
24012;PMS7003;12220;50.194;18.948;2023-01-08T06:41:23;64;50;30
24012;PMS7003;12220;50.194;18.948;2023-01-08T06:43:34;59;47;28
24012;PMS7003;12220;50.194;18.948;2023-01-08T06:45:36;56;45;28
24012;PMS7003;12220;50.194;18.948;2023-01-08T06:47:38;58;46;29
24012;PMS7003;12220;50.194;18.948;2023-01-08T06:49:40;72;54;31
24012;PMS7003;12220;50.194;18.948;2023-01-08T06:51:49;63;49;31
24012;PMS7003;12220;50.194;18.948;2023-01-08T06:53:51;62;49;30
24012;PMS7003;12220;50.194;18.948;2023-01-08T06:55:53;64;50;33
24012;PMS7003;12220;50.194;18.948;2023-01-08T06:57:58;60;50;32
24012;PMS7003;12220;50.194;18.948;2023-01-08T07:00:05;69;49;30
24012;PMS7003;12220;50.194;18.948;2023-01-08T07:02:10;62;49;32
24012;PMS7003;12220;50.194;18.948;2023-01-08T07:04:13;65;49;30
24012;PMS7003;12220;50.194;18.948;2023-01-08T07:06:15;56;44;29
24012;PMS7003;12220;50.194;18.948;2023-01-08T07:08:20;59;49;32
24012;PMS7003;12220;50.194;18.948;2023-01-08T07:10:21;62;50;32
24012;PMS7003;12220;50.194;18.948;2023-01-08T07:12:23;63;50;31
24012;PMS7003;12220;50.194;18.948;2023-01-08T07:14:25;67;52;32
24012;PMS7003;12220;50.194;18.948;2023-01-08T07:16:35;66;50;31
24012;PMS7003;12220;50.194;18.948;2023-01-08T07:18:37;58;47;31
24012;PMS7003;12220;50.194;18.948;2023-01-08T07:20:39;61;48;29
24012;PMS7003;12220;50.194;18.948;2023-01-08T07:22:40;55;46;28
24012;PMS7003;12220;50.194;18.948;2023-01-08T07:24:51;57;45;29
24012;PMS7003;12220;50.194;18.948;2023-01-08T07:26:52;55;40;25
24012;PMS7003;12220;50.194;18.948;2023-01-08T07:28:54;47;38;24
24012;PMS7003;12220;50.194;18.948;2023-01-08T07:30:56;50;42;26
24012;PMS7003;12220;50.194;18.948;2023-01-08T07:33:05;49;36;24
24012;PMS7003;12220;50.194;18.948;2023-01-08T07:35:07;50;39;23
24012;PMS7003;12220;50.194;18.948;2023-01-08T07:37:09;39;34;23
24012;PMS7003;12220;50.194;18.948;2023-01-08T07:39:10;38;31;19
24012;PMS7003;12220;50.194;18.948;2023-01-08T07:41:21;57;42;27
24012;PMS7003;12220;50.194;18.948;2023-01-08T07:43:22;52;40;25
24012;PMS7003;12220;50.194;18.948;2023-01-08T07:45:26;51;39;25
24012;PMS7003;12220;50.194;18.948;2023-01-08T07:47:28;49;40;24
24012;PMS7003;12220;50.194;18.948;2023-01-08T07:49:36;55;41;25
24012;PMS7003;12220;50.194;18.948;2023-01-08T07:51:38;52;43;24
24012;PMS7003;12220;50.194;18.948;2023-01-08T07:53:43;51;40;25
24012;PMS7003;12220;50.194;18.948;2023-01-08T07:55:44;48;38;25
24012;PMS7003;12220;50.194;18.948;2023-01-08T07:57:51;48;38;23
24012;PMS7003;12220;50.194;18.948;2023-01-08T07:59:53;46;39;25
24012;PMS7003;12220;50.194;18.948;2023-01-08T08:01:54;44;37;22
24012;PMS7003;12220;50.194;18.948;2023-01-08T08:03:55;50;39;24
24012;PMS7003;12220;50.194;18.948;2023-01-08T08:06:06;48;37;22
24012;PMS7003;12220;50.194;18.948;2023-01-08T08:08:08;43;36;22
24012;PMS7003;12220;50.194;18.948;2023-01-08T08:10:11;47;37;24
24012;PMS7003;12220;50.194;18.948;2023-01-08T08:12:12;43;33;22
24012;PMS7003;12220;50.194;18.948;2023-01-08T08:14:21;44;35;25
24012;PMS7003;12220;50.194;18.948;2023-01-08T08:16:23;49;40;26
24012;PMS7003;12220;50.194;18.948;2023-01-08T08:18:24;43;36;23
24012;PMS7003;12220;50.194;18.948;2023-01-08T08:20:26;48;36;22
24012;PMS7003;12220;50.194;18.948;2023-01-08T08:22:37;34;32;22
24012;PMS7003;12220;50.194;18.948;2023-01-08T08:24:38;48;32;21
24012;PMS7003;12220;50.194;18.948;2023-01-08T08:26:40;44;33;19
24012;PMS7003;12220;50.194;18.948;2023-01-08T08:28:41;42;36;23
24012;PMS7003;12220;50.194;18.948;2023-01-08T08:30:52;47;39;24
24012;PMS7003;12220;50.194;18.948;2023-01-08T08:32:53;46;37;24
24012;PMS7003;12220;50.194;18.948;2023-01-08T08:34:55;51;41;27
24012;PMS7003;12220;50.194;18.948;2023-01-08T08:36:59;47;40;28
24012;PMS7003;12220;50.194;18.948;2023-01-08T08:39:07;47;39;23
24012;PMS7003;12220;50.194;18.948;2023-01-08T08:41:08;45;38;24
24012;PMS7003;12220;50.194;18.948;2023-01-08T08:43:10;50;43;27
24012;PMS7003;12220;50.194;18.948;2023-01-08T08:45:12;48;38;24
24012;PMS7003;12220;50.194;18.948;2023-01-08T08:47:22;53;39;21
24012;PMS7003;12220;50.194;18.948;2023-01-08T08:49:24;43;36;23
24012;PMS7003;12220;50.194;18.948;2023-01-08T08:51:25;45;35;21
24012;PMS7003;12220;50.194;18.948;2023-01-08T08:53:27;37;33;22
24012;PMS7003;12220;50.194;18.948;2023-01-08T08:55:37;39;32;22
24012;PMS7003;12220;50.194;18.948;2023-01-08T08:57:39;34;31;22
24012;PMS7003;12220;50.194;18.948;2023-01-08T08:59:40;42;34;24
24012;PMS7003;12220;50.194;18.948;2023-01-08T09:01:43;43;32;20
24012;PMS7003;12220;50.194;18.948;2023-01-08T09:03:53;46;35;22
24012;PMS7003;12220;50.194;18.948;2023-01-08T09:05:55;46;35;22
24012;PMS7003;12220;50.194;18.948;2023-01-08T09:07:57;37;32;20
24012;PMS7003;12220;50.194;18.948;2023-01-08T09:09:58;44;36;25
24012;PMS7003;12220;50.194;18.948;2023-01-08T09:12:08;45;37;25
24012;PMS7003;12220;50.194;18.948;2023-01-08T09:14:09;46;37;23
24012;PMS7003;12220;50.194;18.948;2023-01-08T09:16:11;37;33;24
24012;PMS7003;12220;50.194;18.948;2023-01-08T09:18:12;42;37;22
24012;PMS7003;12220;50.194;18.948;2023-01-08T09:20:23;52;39;25
24012;PMS7003;12220;50.194;18.948;2023-01-08T09:22:26;44;35;24
24012;PMS7003;12220;50.194;18.948;2023-01-08T09:24:27;46;38;26
24012;PMS7003;12220;50.194;18.948;2023-01-08T09:26:32;50;39;27
24012;PMS7003;12220;50.194;18.948;2023-01-08T09:28:38;52;40;24
24012;PMS7003;12220;50.194;18.948;2023-01-08T09:30:40;49;38;25
24012;PMS7003;12220;50.194;18.948;2023-01-08T09:32:41;48;37;26
24012;PMS7003;12220;50.194;18.948;2023-01-08T09:34:43;49;39;24
24012;PMS7003;12220;50.194;18.948;2023-01-08T09:36:53;53;42;28
24012;PMS7003;12220;50.194;18.948;2023-01-08T09:38:55;56;45;30
24012;PMS7003;12220;50.194;18.948;2023-01-08T09:41:01;56;45;29
24012;PMS7003;12220;50.194;18.948;2023-01-08T09:43:09;60;46;29
24012;PMS7003;12220;50.194;18.948;2023-01-08T09:47:31;50;43;23
24012;PMS7003;12220;50.194;18.948;2023-01-08T09:49:39;52;42;27
24012;PMS7003;12220;50.194;18.948;2023-01-08T09:51:45;48;39;23
24012;PMS7003;12220;50.194;18.948;2023-01-08T09:53:53;47;38;25
24012;PMS7003;12220;50.194;18.948;2023-01-08T09:58:15;45;37;25
24012;PMS7003;12220;50.194;18.948;2023-01-08T10:00:33;47;39;26
24012;PMS7003;12220;50.194;18.948;2023-01-08T10:02:35;48;40;25
24012;PMS7003;12220;50.194;18.948;2023-01-08T10:04:43;55;44;27
24012;PMS7003;12220;50.194;18.948;2023-01-08T10:08:55;60;42;26
24012;PMS7003;12220;50.194;18.948;2023-01-08T10:10:57;51;42;26
24012;PMS7003;12220;50.194;18.948;2023-01-08T10:12:59;52;41;27
24012;PMS7003;12220;50.194;18.948;2023-01-08T10:15:02;43;37;24
24012;PMS7003;12220;50.194;18.948;2023-01-08T10:19:26;52;41;24
24012;PMS7003;12220;50.194;18.948;2023-01-08T10:21:28;50;40;22
24012;PMS7003;12220;50.194;18.948;2023-01-08T10:23:32;48;39;25
24012;PMS7003;12220;50.194;18.948;2023-01-08T10:25:45;44;36;25
24012;PMS7003;12220;50.194;18.948;2023-01-08T10:30:19;42;35;21
24012;PMS7003;12220;50.194;18.948;2023-01-08T10:32:26;48;38;23
24012;PMS7003;12220;50.194;18.948;2023-01-08T10:34:31;52;40;24
24012;PMS7003;12220;50.194;18.948;2023-01-08T10:36:43;39;34;22
24012;PMS7003;12220;50.194;18.948;2023-01-08T10:40:57;46;36;22
24012;PMS7003;12220;50.194;18.948;2023-01-08T10:43:13;41;34;22
24012;PMS7003;12220;50.194;18.948;2023-01-08T10:45:27;43;34;23
24012;PMS7003;12220;50.194;18.948;2023-01-08T10:47:27;33;31;21
24012;PMS7003;12220;50.194;18.948;2023-01-08T10:49:37;33;32;20
24012;PMS7003;12220;50.194;18.948;2023-01-08T10:51:47;31;28;19
24012;PMS7003;12220;50.194;18.948;2023-01-08T10:53:54;43;33;22
24012;PMS7003;12220;50.194;18.948;2023-01-08T10:56:02;37;33;22
24012;PMS7003;12220;50.194;18.948;2023-01-08T11:02:33;36;31;20
24012;PMS7003;12220;50.194;18.948;2023-01-08T11:04:48;26;26;20
24012;PMS7003;12220;50.194;18.948;2023-01-08T11:06:53;29;29;20
24012;PMS7003;12220;50.194;18.948;2023-01-08T11:09:21;34;28;19
24012;PMS7003;12220;50.194;18.948;2023-01-08T11:11:17;38;32;22
24012;PMS7003;12220;50.194;18.948;2023-01-08T11:13:19;45;37;22
24012;PMS7003;12220;50.194;18.948;2023-01-08T11:15:27;34;31;21
24012;PMS7003;12220;50.194;18.948;2023-01-08T11:17:30;36;31;22
24012;PMS7003;12220;50.194;18.948;2023-01-08T11:19:33;37;32;22
24012;PMS7003;12220;50.194;18.948;2023-01-08T11:21:35;47;35;24
24012;PMS7003;12220;50.194;18.948;2023-01-08T11:23:38;46;38;25
24012;PMS7003;12220;50.194;18.948;2023-01-08T11:27:58;34;26;15
24012;PMS7003;12220;50.194;18.948;2023-01-08T11:30:05;37;34;22
24012;PMS7003;12220;50.194;18.948;2023-01-08T11:36:51;37;33;22
24012;PMS7003;12220;50.194;18.948;2023-01-08T11:39:08;46;37;23
24012;PMS7003;12220;50.194;18.948;2023-01-08T11:44:21;50;35;25
24012;PMS7003;12220;50.194;18.948;2023-01-08T12:34:10;46;39;25
24012;PMS7003;12220;50.194;18.948;2023-01-08T12:36:17;43;35;24
24012;PMS7003;12220;50.194;18.948;2023-01-08T12:40:39;41;33;23
24012;PMS7003;12220;50.194;18.948;2023-01-08T12:42:45;41;32;21
24012;PMS7003;12220;50.194;18.948;2023-01-08T12:44:52;44;37;22
24012;PMS7003;12220;50.194;18.948;2023-01-08T12:46:57;40;32;22
24012;PMS7003;12220;50.194;18.948;2023-01-08T12:49:10;29;26;17
24012;PMS7003;12220;50.194;18.948;2023-01-08T12:56:01;25;25;19
24012;PMS7003;12220;50.194;18.948;2023-01-08T12:58:27;34;28;17
24012;PMS7003;12220;50.194;18.948;2023-01-08T13:03:02;29;26;16
24012;PMS7003;12220;50.194;18.948;2023-01-08T13:07:35;20;18;14
24012;PMS7003;12220;50.194;18.948;2023-01-08T13:09:43;25;20;15
24012;PMS7003;12220;50.194;18.948;2023-01-08T13:11:48;26;21;16
24012;PMS7003;12220;50.194;18.948;2023-01-08T13:18:18;26;21;13
24012;PMS7003;12220;50.194;18.948;2023-01-08T13:20:22;28;24;17
24012;PMS7003;12220;50.194;18.948;2023-01-08T13:22:32;28;26;19
24012;PMS7003;12220;50.194;18.948;2023-01-08T13:25:06;33;28;17
24012;PMS7003;12220;50.194;18.948;2023-01-08T13:31:38;34;29;19
24012;PMS7003;12220;50.194;18.948;2023-01-08T13:33:43;25;25;17
24012;PMS7003;12220;50.194;18.948;2023-01-08T13:35:48;26;26;18
24012;PMS7003;12220;50.194;18.948;2023-01-08T13:40:03;27;23;15
24012;PMS7003;12220;50.194;18.948;2023-01-08T13:44:24;22;17;12
24012;PMS7003;12220;50.194;18.948;2023-01-08T13:46:40;20;18;14
24012;PMS7003;12220;50.194;18.948;2023-01-08T13:48:47;23;18;14
24012;PMS7003;12220;50.194;18.948;2023-01-08T13:50:56;17;17;9
24012;PMS7003;12220;50.194;18.948;2023-01-08T13:52:58;28;21;13
24012;PMS7003;12220;50.194;18.948;2023-01-08T13:55:03;19;19;12
24012;PMS7003;12220;50.194;18.948;2023-01-08T13:57:13;25;20;15
24012;PMS7003;12220;50.194;18.948;2023-01-08T14:01:50;37;32;20
24012;PMS7003;12220;50.194;18.948;2023-01-08T14:06:34;36;29;20
24012;PMS7003;12220;50.194;18.948;2023-01-08T14:08:54;33;23;19
24012;PMS7003;12220;50.194;18.948;2023-01-08T14:10:58;25;19;12
24012;PMS7003;12220;50.194;18.948;2023-01-08T14:13:07;28;22;16
24012;PMS7003;12220;50.194;18.948;2023-01-08T14:15:14;23;22;16
24012;PMS7003;12220;50.194;18.948;2023-01-08T14:17:31;26;22;15
24012;PMS7003;12220;50.194;18.948;2023-01-08T14:19:35;19;19;15
24012;PMS7003;12220;50.194;18.948;2023-01-08T14:21:37;19;16;10
24012;PMS7003;12220;50.194;18.948;2023-01-08T14:23:48;26;19;14
24012;PMS7003;12220;50.194;18.948;2023-01-08T14:25:53;16;14;10
24012;PMS7003;12220;50.194;18.948;2023-01-08T14:28:04;25;20;14
24012;PMS7003;12220;50.194;18.948;2023-01-08T14:30:12;18;14;11
24012;PMS7003;12220;50.194;18.948;2023-01-08T14:32:19;26;23;17
24012;PMS7003;12220;50.194;18.948;2023-01-08T14:34:25;59;41;21
24012;PMS7003;12220;50.194;18.948;2023-01-08T14:36:29;54;39;25
24012;PMS7003;12220;50.194;18.948;2023-01-08T14:38:31;57;41;24
24012;PMS7003;12220;50.194;18.948;2023-01-08T14:40:35;56;41;22
24012;PMS7003;12220;50.194;18.948;2023-01-08T14:42:41;62;43;25
24012;PMS7003;12220;50.194;18.948;2023-01-08T14:45:02;60;43;22
24012;PMS7003;12220;50.194;18.948;2023-01-08T14:47:12;57;41;22
24012;PMS7003;12220;50.194;18.948;2023-01-08T14:49:22;48;39;23
24012;PMS7003;12220;50.194;18.948;2023-01-08T14:51:28;47;35;21
24012;PMS7003;12220;50.194;18.948;2023-01-08T14:53:32;51;39;22
24012;PMS7003;12220;50.194;18.948;2023-01-08T14:58:10;53;36;22
24012;PMS7003;12220;50.194;18.948;2023-01-08T15:00:28;48;36;23
24012;PMS7003;12220;50.194;18.948;2023-01-08T15:02:32;48;36;22
24012;PMS7003;12220;50.194;18.948;2023-01-08T15:04:37;42;33;23
24012;PMS7003;12220;50.194;18.948;2023-01-08T15:06:39;51;41;23
24012;PMS7003;12220;50.194;18.948;2023-01-08T15:08:43;46;36;24
24012;PMS7003;12220;50.194;18.948;2023-01-08T15:10:57;49;41;26
24012;PMS7003;12220;50.194;18.948;2023-01-08T15:12:58;62;47;28
24012;PMS7003;12220;50.194;18.948;2023-01-08T15:17:20;61;45;27
24012;PMS7003;12220;50.194;18.948;2023-01-08T15:19:27;61;46;27
24012;PMS7003;12220;50.194;18.948;2023-01-08T15:21:30;58;45;29
24012;PMS7003;12220;50.194;18.948;2023-01-08T15:23:34;58;47;30